Frej — SBPT — position and weather

sailwx.info

Track history (hours):
 
Tides and Currents Weather Stations Pressure Air Temp Water Temp Dewpoint Dewpoint Depression Visibility Wind Speed Wind Dir Waves Ship Positions

Frej

Last reported at 2016-Dec-03 18:00 UTC. Time now 2016-Dec-03 19:49 UTC.
Position N 65°36' E 022°12'.

Length 108 m; draft 7.8 m.

Type: Other ship. MMSI: 265068000.

Wind from 360 at 8 knots

Barometer 1020.2 mb
Air temperature -15.6 ° C

Date/timePositionNaut miles runAvg speedWind from/ knotsBaromVisibWave heightAir tempDewpointWater temp
2016-Dec-03 18:00N 65°36' E 022°12'0 0.0 360 / 81020.2 -15.6
2016-Dec-03 15:00N 65°36' E 022°12'0 0.0 320 / 121020.1 -14.7
2016-Dec-03 13:00N 65°36' E 022°12'0 0.0 330 / 141019.3 -14.1
2016-Dec-03 12:00N 65°36' E 022°12'0 0.0 330 / 81019.1 -13.7
2016-Dec-03 11:00N 65°36' E 022°12'0 0.0 330 / 101018.9 -13.5
2016-Dec-03 10:00N 65°36' E 022°12'0 0.0 330 / 101018.7 -13.8
2016-Dec-03 09:00N 65°36' E 022°12'0 0.0 330 / 101018.5 -13.7
2016-Dec-03 07:00N 65°36' E 022°12'0 0.0 320 / 121017.4 -13.5
2016-Dec-03 06:00N 65°36' E 022°12'0 0.0 330 / 81016.9 -13.3
2016-Dec-03 03:00N 65°36' E 022°12'0 0.0 310 / 81015.7 -12.3
2016-Dec-03 00:00N 65°36' E 022°12'0 0.0 330 / 101014.3 -11.0
2016-Dec-02 22:00N 65°36' E 022°12'0 0.0 340 / 101013.6 -9.7
2016-Dec-02 21:00N 65°36' E 022°12'0 0.0 350 / 121013.3 -9.0
2016-Dec-02 18:00N 65°36' E 022°12'0 0.0 320 / 161012.5 -8.3
2016-Dec-02 16:00N 65°36' E 022°12'0 0.0 320 / 121012.2 -7.9
2016-Dec-02 15:00N 65°36' E 022°12'0 0.0 320 / 141011.8 -7.3
2016-Dec-02 12:00N 65°36' E 022°12'0 0.0 330 / 171010.2 -5.1
2016-Dec-02 10:00N 65°36' E 022°12'0 0.0 360 / 161008.6 -3.7
2016-Dec-02 09:00N 65°36' E 022°12'0 0.0 350 / 121007.3 -3.5
2016-Dec-02 07:00N 65°36' E 022°12'0 0.0 330 / 171005.4 -3.6
2016-Dec-02 06:00N 65°36' E 022°12'0 0.0 330 / 161004.6 -4.0
2016-Dec-02 05:00N 65°36' E 022°12'0 0.0 330 / 121004.1 -4.3
2016-Dec-02 04:00N 65°36' E 022°12'0 0.0 350 / 141003.5 -3.7
2016-Dec-02 03:00N 65°36' E 022°12'0 0.0 350 / 171002.7 -3.1
2016-Dec-02 01:00N 65°36' E 022°12'0 0.0 340 / 191000.6 -1.2
2016-Dec-02 00:00N 65°36' E 022°12'0 0.0 350 / 14999.8 -0.8
2016-Dec-01 21:00N 65°36' E 022°12'0 0.0 010 / 16996.7 -2.5
2016-Dec-01 20:00N 65°36' E 022°12'0 0.0 350 / 10995.7 -3.7
2016-Dec-01 18:00N 65°36' E 022°12'0 0.0 340 / 8994.0 -5.2
2016-Dec-01 17:00N 65°36' E 022°12'0 0.0 320 / 8993.4 -6.2
2016-Dec-01 15:00N 65°36' E 022°12'0 0.0 320 / 6992.2 -7.1
2016-Dec-01 14:00N 65°36' E 022°12'0 0.0 340 / 8991.2 -8.4
2016-Dec-01 12:00N 65°36' E 022°12'0 0.0 340 / 8989.9 -6.5
2016-Dec-01 11:00N 65°36' E 022°12'0 0.0 310 / 6989.7 -6.3
2016-Dec-01 08:00N 65°36' E 022°12'0 0.0 300 / 6988.9 -5.3
2016-Dec-01 07:00N 65°36' E 022°12'0 0.0 300 / 6989.0 -4.6
2016-Dec-01 06:00N 65°36' E 022°12'0 0.0 290 / 4989.2 -4.0
2016-Dec-01 03:00N 65°36' E 022°12'0 0.0 300 / 10990.3 -2.3
2016-Dec-01 02:00N 65°36' E 022°12'0 0.0 300 / 14990.4 -2.1
2016-Dec-01 00:00N 65°36' E 022°12'0 0.0 300 / 16990.8 -1.6
2016-Nov-30 21:00N 65°36' E 022°12'0 0.0 300 / 21990.8 -0.3
2016-Nov-30 18:00N 65°36' E 022°12'0 0.0 300 / 19989.6 0.1
2016-Nov-30 16:00N 65°36' E 022°12'0 0.0 310 / 16989.2 0.3
2016-Nov-30 15:00N 65°36' E 022°12'0 0.0 300 / 14988.8 -0.3
2016-Nov-30 14:00N 65°36' E 022°12'0 0.0 290 / 17988.6 0.1
2016-Nov-30 12:00N 65°36' E 022°12'0 0.0 300 / 21988.2 0.9
2016-Nov-30 09:00N 65°36' E 022°12'0 0.0 310 / 6988.2 -1.0
2016-Nov-30 08:00N 65°36' E 022°12'0 0.0 310 / 8987.9 -0.8
2016-Nov-30 06:00N 65°36' E 022°12'0 0.0 300 / 6987.0 -0.5
2016-Nov-30 03:00N 65°36' E 022°12'0 0.0 190 / 10987.8 0.1
2016-Nov-30 02:00N 65°36' E 022°12'0 0.0 200 / 6988.6 0.3
2016-Nov-30 01:00N 65°36' E 022°12'0 0.0 210 / 10989.3 0.8
2016-Nov-30 00:00N 65°36' E 022°12'0 0.0 200 / 8990.2 0.9
2016-Nov-29 22:00N 65°36' E 022°12'0 0.0 190 / 10992.3 1.4
2016-Nov-29 21:00N 65°36' E 022°12'0 0.0 190 / 12993.2 1.5
2016-Nov-29 20:00N 65°36' E 022°12'0 0.0 200 / 14994.4 1.7
2016-Nov-29 19:00N 65°36' E 022°12'0 0.0 200 / 14995.7 1.6
2016-Nov-29 18:00N 65°36' E 022°12'0 0.0 190 / 12996.9 1.4
2016-Nov-29 15:00N 65°36' E 022°12'0 0.0 180 / 121000.4 0.2
2016-Nov-29 12:00N 65°36' E 022°12'0 0.0 190 / 161004.8 -0.2
2016-Nov-29 11:00N 65°36' E 022°12'0 0.0 190 / 141006.6 -1.0
2016-Nov-29 09:00N 65°36' E 022°12'0 0.0 190 / 61008.9 -2.8
2016-Nov-29 07:00N 65°36' E 022°12'0 0.0 160 / 41010.8 -3.8
2016-Nov-29 06:00N 65°36' E 022°12'0 0.0 190 / 61011.6 -3.5
2016-Nov-29 05:00N 65°36' E 022°12'0 0.0 190 / 61012.2 -2.9
2016-Nov-29 03:00N 65°36' E 022°12'0 0.0 190 / 141013.7 -2.5
2016-Nov-29 01:00N 65°36' E 022°12'0 0.0 190 / 81015.4 -4.8
2016-Nov-29 00:00N 65°36' E 022°12'0 0.0 160 / 81016.0 -6.5
2016-Nov-28 22:00N 65°36' E 022°12'0 0.0 010 1017.6 -8.5
2016-Nov-28 21:00N 65°36' E 022°12'0 0.0 300 / 41017.6 -9.6
2016-Nov-28 18:00N 65°36' E 022°12'0 0.0 330 / 41017.2 -8.5
2016-Nov-28 15:00N 65°36' E 022°12'0 0.0 330 / 41016.7 -7.2
2016-Nov-28 13:00N 65°36' E 022°12'0 0.0 320 / 61016.2 -6.3
2016-Nov-28 12:00N 65°36' E 022°12'0 0.0 340 / 61016.2 -5.8
2016-Nov-28 11:00N 65°36' E 022°12'0 0.0 320 / 61016.1 -5.7
2016-Nov-28 09:00N 65°36' E 022°12'0 0.0 320 / 101016.1 -5.8
2016-Nov-28 06:00N 65°36' E 022°12'0 0.0 320 / 141015.7 -6.5
2016-Nov-28 03:00N 65°36' E 022°12'0 0.0 330 / 81016.3 -6.1
2016-Nov-28 00:00N 65°36' E 022°12'0 0.0 310 / 101017.0 -7.2
2016-Nov-27 23:00N 65°36' E 022°12'0 0.0 330 / 121017.3 -6.7
2016-Nov-27 21:00N 65°36' E 022°12'0 0.0 320 / 121017.4 -6.6
2016-Nov-27 18:00N 65°36' E 022°12'0 0.0 320 / 161017.3 -5.4
2016-Nov-27 15:00N 65°36' E 022°12'0 0.0 360 / 141015.0 -3.9
2016-Nov-27 14:00N 65°36' E 022°12'0 0.0 320 / 121014.0 -3.7
2016-Nov-27 13:00N 65°36' E 022°12'0 0.0 330 / 121013.1 -5.3
2016-Nov-27 12:00N 65°36' E 022°12'0 0.0 340 / 161012.4 -5.9
2016-Nov-27 11:00N 65°36' E 022°12'0 0.0 340 / 141011.4 -5.2
2016-Nov-27 09:00N 65°36' E 022°12'0 0.0 350 / 141009.1 -6.0
2016-Nov-27 06:00N 65°36' E 022°12'0 0.0 360 / 161004.4 -5.1
2016-Nov-27 03:00N 65°36' E 022°12'0 0.0 010 / 16100.0 -5.3
2016-Nov-27 00:00N 65°36' E 022°12'0 0.0 350 / 19996.3 -5.7
2016-Nov-26 21:00N 65°36' E 022°12'0 0.0 340 / 17993.1 -5.3
2016-Nov-26 19:00N 65°36' E 022°12'0 0.0 350 / 8991.0 -3.7
2016-Nov-26 18:00N 65°36' E 022°12'0 0.0 350 / 10990.2 -3.3
2016-Nov-26 15:00N 65°36' E 022°12'0 0.0 988.0 -2.8
2016-Nov-26 14:00N 65°36' E 022°12'0 0.0 020 / 10987.4 -2.6
2016-Nov-26 12:00N 65°36' E 022°12'0 0.0 050 / 10986.5 -1.9
2016-Nov-26 10:00N 65°36' E 022°12'0 0.0 050 / 6985.5 -0.5
2016-Nov-26 09:00N 65°36' E 022°12'0 0.0 320 / 6985.2 -2.2
2016-Nov-26 07:00N 65°36' E 022°12'0 0.0 320 / 8985.3 -2.4
2016-Nov-26 06:00N 65°36' E 022°12'0 0.0 300 / 14985.8 -2.1
2016-Nov-26 05:00N 65°36' E 022°12'0 0.0 310 / 10985.9 -0.6
2016-Nov-26 04:00N 65°36' E 022°12'0 0.0 350 / 8986.6 -0.5
2016-Nov-26 03:00N 65°36' E 022°12'0 0.0 310 / 14987.3 -0.2
2016-Nov-26 00:00N 65°36' E 022°12'0 0.0 160 / 16990.1 0.4
2016-Nov-25 23:00N 65°36' E 022°12'0 0.0 170 / 21991.6 0.2
2016-Nov-25 21:00N 65°36' E 022°12'0 0.0 160 / 25995.3 -0.0
2016-Nov-25 20:00N 65°36' E 022°12'0 0.0 150 / 27996.8 -0.3
2016-Nov-25 18:00N 65°36' E 022°12'0 0.0 150 / 291001.0 -0.2
2016-Nov-25 15:00N 65°36' E 022°12'0 0.0 140 / 121007.5 -1.6
2016-Nov-25 14:00N 65°36' E 022°12'0 0.0 090 / 81009.8 -3.8
2016-Nov-25 12:00N 65°36' E 022°12'0 0.0 120 / 21012.4 -5.3
2016-Nov-25 11:00N 65°36' E 022°12'0 0.0 040 / 21013.8 -6.3
2016-Nov-25 09:00N 65°36' E 022°12'0 0.0 030 / 41014.8 -7.4
2016-Nov-25 08:00N 65°36' E 022°12'0 0.0 350 / 41015.6 -7.2
2016-Nov-25 07:00N 65°36' E 022°12'0 0.0 360 / 21015.7 -8.0
2016-Nov-25 06:00N 65°36' E 022°12'0 0.0 170 / 81016.1 -7.5
2016-Nov-25 05:00N 65°36' E 022°12'0 0.0 120 / 21016.0 -9.3
2016-Nov-25 03:00N 65°36' E 022°12'0 0.0 360 / 41016.8 -8.7
2016-Nov-25 00:00N 65°36' E 022°12'0 0.0 340 / 61016.6 -7.6
2016-Nov-24 21:00N 65°36' E 022°12'0 0.0 350 / 141015.7 -5.8
2016-Nov-24 18:00N 65°36' E 022°12'0 0.0 330 / 101014.0 -5.6
2016-Nov-24 15:00N 65°36' E 022°12'0 0.0 360 / 61012.0 -5.3
2016-Nov-24 12:00N 65°36' E 022°12'   310 / 121010.4 -6.4
Track history (hours):
 
Tides and Currents Weather Stations Pressure Air Temp Water Temp Dewpoint Dewpoint Depression Visibility Wind Speed Wind Dir Waves Ship Positions

Frej

Last reported at 2016-Dec-03 18:00 UTC. Time now 2016-Dec-03 19:49 UTC.
Position N 65°36' E 022°12'.

Length 108 m; draft 7.8 m.

Type: Other ship. MMSI: 265068000.

Wind from 360 at 8 knots

Barometer 1020.2 mb
Air temperature -15.6 ° C

Date/timePositionNaut miles runAvg speedWind from/ knotsBaromVisibWave heightAir tempDewpointWater temp
2016-Dec-03 18:00N 65°36' E 022°12'0 0.0 360 / 81020.2 -15.6
2016-Dec-03 15:00N 65°36' E 022°12'0 0.0 320 / 121020.1 -14.7
2016-Dec-03 13:00N 65°36' E 022°12'0 0.0 330 / 141019.3 -14.1
2016-Dec-03 12:00N 65°36' E 022°12'0 0.0 330 / 81019.1 -13.7
2016-Dec-03 11:00N 65°36' E 022°12'0 0.0 330 / 101018.9 -13.5
2016-Dec-03 10:00N 65°36' E 022°12'0 0.0 330 / 101018.7 -13.8
2016-Dec-03 09:00N 65°36' E 022°12'0 0.0 330 / 101018.5 -13.7
2016-Dec-03 07:00N 65°36' E 022°12'0 0.0 320 / 121017.4 -13.5
2016-Dec-03 06:00N 65°36' E 022°12'0 0.0 330 / 81016.9 -13.3
2016-Dec-03 03:00N 65°36' E 022°12'0 0.0 310 / 81015.7 -12.3
2016-Dec-03 00:00N 65°36' E 022°12'0 0.0 330 / 101014.3 -11.0
2016-Dec-02 22:00N 65°36' E 022°12'0 0.0 340 / 101013.6 -9.7
2016-Dec-02 21:00N 65°36' E 022°12'0 0.0 350 / 121013.3 -9.0
2016-Dec-02 18:00N 65°36' E 022°12'0 0.0 320 / 161012.5 -8.3
2016-Dec-02 16:00N 65°36' E 022°12'0 0.0 320 / 121012.2 -7.9
2016-Dec-02 15:00N 65°36' E 022°12'0 0.0 320 / 141011.8 -7.3
2016-Dec-02 12:00N 65°36' E 022°12'0 0.0 330 / 171010.2 -5.1
2016-Dec-02 10:00N 65°36' E 022°12'0 0.0 360 / 161008.6 -3.7
2016-Dec-02 09:00N 65°36' E 022°12'0 0.0 350 / 121007.3 -3.5
2016-Dec-02 07:00N 65°36' E 022°12'0 0.0 330 / 171005.4 -3.6
2016-Dec-02 06:00N 65°36' E 022°12'0 0.0 330 / 161004.6 -4.0
2016-Dec-02 05:00N 65°36' E 022°12'0 0.0 330 / 121004.1 -4.3
2016-Dec-02 04:00N 65°36' E 022°12'0 0.0 350 / 141003.5 -3.7
2016-Dec-02 03:00N 65°36' E 022°12'0 0.0 350 / 171002.7 -3.1
2016-Dec-02 01:00N 65°36' E 022°12'0 0.0 340 / 191000.6 -1.2
2016-Dec-02 00:00N 65°36' E 022°12'0 0.0 350 / 14999.8 -0.8
2016-Dec-01 21:00N 65°36' E 022°12'0 0.0 010 / 16996.7 -2.5
2016-Dec-01 20:00N 65°36' E 022°12'0 0.0 350 / 10995.7 -3.7
2016-Dec-01 18:00N 65°36' E 022°12'0 0.0 340 / 8994.0 -5.2
2016-Dec-01 17:00N 65°36' E 022°12'0 0.0 320 / 8993.4 -6.2
2016-Dec-01 15:00N 65°36' E 022°12'0 0.0 320 / 6992.2 -7.1
2016-Dec-01 14:00N 65°36' E 022°12'0 0.0 340 / 8991.2 -8.4
2016-Dec-01 12:00N 65°36' E 022°12'0 0.0 340 / 8989.9 -6.5
2016-Dec-01 11:00N 65°36' E 022°12'0 0.0 310 / 6989.7 -6.3
2016-Dec-01 08:00N 65°36' E 022°12'0 0.0 300 / 6988.9 -5.3
2016-Dec-01 07:00N 65°36' E 022°12'0 0.0 300 / 6989.0 -4.6
2016-Dec-01 06:00N 65°36' E 022°12'0 0.0 290 / 4989.2 -4.0
2016-Dec-01 03:00N 65°36' E 022°12'0 0.0 300 / 10990.3 -2.3
2016-Dec-01 02:00N 65°36' E 022°12'0 0.0 300 / 14990.4 -2.1
2016-Dec-01 00:00N 65°36' E 022°12'0 0.0 300 / 16990.8 -1.6
2016-Nov-30 21:00N 65°36' E 022°12'0 0.0 300 / 21990.8 -0.3
2016-Nov-30 18:00N 65°36' E 022°12'0 0.0 300 / 19989.6 0.1
2016-Nov-30 16:00N 65°36' E 022°12'0 0.0 310 / 16989.2 0.3
2016-Nov-30 15:00N 65°36' E 022°12'0 0.0 300 / 14988.8 -0.3
2016-Nov-30 14:00N 65°36' E 022°12'0 0.0 290 / 17988.6 0.1
2016-Nov-30 12:00N 65°36' E 022°12'0 0.0 300 / 21988.2 0.9
2016-Nov-30 09:00N 65°36' E 022°12'0 0.0 310 / 6988.2 -1.0
2016-Nov-30 08:00N 65°36' E 022°12'0 0.0 310 / 8987.9 -0.8
2016-Nov-30 06:00N 65°36' E 022°12'0 0.0 300 / 6987.0 -0.5
2016-Nov-30 03:00N 65°36' E 022°12'0 0.0 190 / 10987.8 0.1
2016-Nov-30 02:00N 65°36' E 022°12'0 0.0 200 / 6988.6 0.3
2016-Nov-30 01:00N 65°36' E 022°12'0 0.0 210 / 10989.3 0.8
2016-Nov-30 00:00N 65°36' E 022°12'0 0.0 200 / 8990.2 0.9
2016-Nov-29 22:00N 65°36' E 022°12'0 0.0 190 / 10992.3 1.4
2016-Nov-29 21:00N 65°36' E 022°12'0 0.0 190 / 12993.2 1.5
2016-Nov-29 20:00N 65°36' E 022°12'0 0.0 200 / 14994.4 1.7
2016-Nov-29 19:00N 65°36' E 022°12'0 0.0 200 / 14995.7 1.6
2016-Nov-29 18:00N 65°36' E 022°12'0 0.0 190 / 12996.9 1.4
2016-Nov-29 15:00N 65°36' E 022°12'0 0.0 180 / 121000.4 0.2
2016-Nov-29 12:00N 65°36' E 022°12'0 0.0 190 / 161004.8 -0.2
2016-Nov-29 11:00N 65°36' E 022°12'0 0.0 190 / 141006.6 -1.0
2016-Nov-29 09:00N 65°36' E 022°12'0 0.0 190 / 61008.9 -2.8
2016-Nov-29 07:00N 65°36' E 022°12'0 0.0 160 / 41010.8 -3.8
2016-Nov-29 06:00N 65°36' E 022°12'0 0.0 190 / 61011.6 -3.5
2016-Nov-29 05:00N 65°36' E 022°12'0 0.0 190 / 61012.2 -2.9
2016-Nov-29 03:00N 65°36' E 022°12'0 0.0 190 / 141013.7 -2.5
2016-Nov-29 01:00N 65°36' E 022°12'0 0.0 190 / 81015.4 -4.8
2016-Nov-29 00:00N 65°36' E 022°12'0 0.0 160 / 81016.0 -6.5
2016-Nov-28 22:00N 65°36' E 022°12'0 0.0 010 1017.6 -8.5
2016-Nov-28 21:00N 65°36' E 022°12'0 0.0 300 / 41017.6 -9.6
2016-Nov-28 18:00N 65°36' E 022°12'0 0.0 330 / 41017.2 -8.5
2016-Nov-28 15:00N 65°36' E 022°12'0 0.0 330 / 41016.7 -7.2
2016-Nov-28 13:00N 65°36' E 022°12'0 0.0 320 / 61016.2 -6.3
2016-Nov-28 12:00N 65°36' E 022°12'0 0.0 340 / 61016.2 -5.8
2016-Nov-28 11:00N 65°36' E 022°12'0 0.0 320 / 61016.1 -5.7
2016-Nov-28 09:00N 65°36' E 022°12'0 0.0 320 / 101016.1 -5.8
2016-Nov-28 06:00N 65°36' E 022°12'0 0.0 320 / 141015.7 -6.5
2016-Nov-28 03:00N 65°36' E 022°12'0 0.0 330 / 81016.3 -6.1
2016-Nov-28 00:00N 65°36' E 022°12'0 0.0 310 / 101017.0 -7.2
2016-Nov-27 23:00N 65°36' E 022°12'0 0.0 330 / 121017.3 -6.7
2016-Nov-27 21:00N 65°36' E 022°12'0 0.0 320 / 121017.4 -6.6
2016-Nov-27 18:00N 65°36' E 022°12'0 0.0 320 / 161017.3 -5.4
2016-Nov-27 15:00N 65°36' E 022°12'0 0.0 360 / 141015.0 -3.9
2016-Nov-27 14:00N 65°36' E 022°12'0 0.0 320 / 121014.0 -3.7
2016-Nov-27 13:00N 65°36' E 022°12'0 0.0 330 / 121013.1 -5.3
2016-Nov-27 12:00N 65°36' E 022°12'0 0.0 340 / 161012.4 -5.9
2016-Nov-27 11:00N 65°36' E 022°12'0 0.0 340 / 141011.4 -5.2
2016-Nov-27 09:00N 65°36' E 022°12'0 0.0 350 / 141009.1 -6.0
2016-Nov-27 06:00N 65°36' E 022°12'0 0.0 360 / 161004.4 -5.1
2016-Nov-27 03:00N 65°36' E 022°12'0 0.0 010 / 16100.0 -5.3
2016-Nov-27 00:00N 65°36' E 022°12'0 0.0 350 / 19996.3 -5.7
2016-Nov-26 21:00N 65°36' E 022°12'0 0.0 340 / 17993.1 -5.3
2016-Nov-26 19:00N 65°36' E 022°12'0 0.0 350 / 8991.0 -3.7
2016-Nov-26 18:00N 65°36' E 022°12'0 0.0 350 / 10990.2 -3.3
2016-Nov-26 15:00N 65°36' E 022°12'0 0.0 988.0 -2.8
2016-Nov-26 14:00N 65°36' E 022°12'0 0.0 020 / 10987.4 -2.6
2016-Nov-26 12:00N 65°36' E 022°12'0 0.0 050 / 10986.5 -1.9
2016-Nov-26 10:00N 65°36' E 022°12'0 0.0 050 / 6985.5 -0.5
2016-Nov-26 09:00N 65°36' E 022°12'0 0.0 320 / 6985.2 -2.2
2016-Nov-26 07:00N 65°36' E 022°12'0 0.0 320 / 8985.3 -2.4
2016-Nov-26 06:00N 65°36' E 022°12'0 0.0 300 / 14985.8 -2.1
2016-Nov-26 05:00N 65°36' E 022°12'0 0.0 310 / 10985.9 -0.6
2016-Nov-26 04:00N 65°36' E 022°12'0 0.0 350 / 8986.6 -0.5
2016-Nov-26 03:00N 65°36' E 022°12'0 0.0 310 / 14987.3 -0.2
2016-Nov-26 00:00N 65°36' E 022°12'0 0.0 160 / 16990.1 0.4
2016-Nov-25 23:00N 65°36' E 022°12'0 0.0 170 / 21991.6 0.2
2016-Nov-25 21:00N 65°36' E 022°12'0 0.0 160 / 25995.3 -0.0
2016-Nov-25 20:00N 65°36' E 022°12'0 0.0 150 / 27996.8 -0.3
2016-Nov-25 18:00N 65°36' E 022°12'0 0.0 150 / 291001.0 -0.2
2016-Nov-25 15:00N 65°36' E 022°12'0 0.0 140 / 121007.5 -1.6
2016-Nov-25 14:00N 65°36' E 022°12'0 0.0 090 / 81009.8 -3.8
2016-Nov-25 12:00N 65°36' E 022°12'0 0.0 120 / 21012.4 -5.3
2016-Nov-25 11:00N 65°36' E 022°12'0 0.0 040 / 21013.8 -6.3
2016-Nov-25 09:00N 65°36' E 022°12'0 0.0 030 / 41014.8 -7.4
2016-Nov-25 08:00N 65°36' E 022°12'0 0.0 350 / 41015.6 -7.2
2016-Nov-25 07:00N 65°36' E 022°12'0 0.0 360 / 21015.7 -8.0
2016-Nov-25 06:00N 65°36' E 022°12'0 0.0 170 / 81016.1 -7.5
2016-Nov-25 05:00N 65°36' E 022°12'0 0.0 120 / 21016.0 -9.3
2016-Nov-25 03:00N 65°36' E 022°12'0 0.0 360 / 41016.8 -8.7
2016-Nov-25 00:00N 65°36' E 022°12'0 0.0 340 / 61016.6 -7.6
2016-Nov-24 21:00N 65°36' E 022°12'0 0.0 350 / 141015.7 -5.8
2016-Nov-24 18:00N 65°36' E 022°12'0 0.0 330 / 101014.0 -5.6
2016-Nov-24 15:00N 65°36' E 022°12'0 0.0 360 / 61012.0 -5.3
2016-Nov-24 12:00N 65°36' E 022°12'   310 / 121010.4 -6.4

Dump ship's entire track history